sensor_id;sensor_type;location;lat;lon;timestamp;P1;durP1;ratioP1;P2;durP2;ratioP2
20375;SDS011;10347;51.828;6.466;2023-09-30T00:01:55;10.07;;;3.92;;
20375;SDS011;10347;51.828;6.466;2023-09-30T00:04:20;8.90;;;4.40;;
20375;SDS011;10347;51.828;6.466;2023-09-30T00:06:46;12.13;;;3.78;;
20375;SDS011;10347;51.828;6.466;2023-09-30T00:09:11;11.38;;;4.72;;
20375;SDS011;10347;51.828;6.466;2023-09-30T00:11:38;8.63;;;3.88;;
20375;SDS011;10347;51.828;6.466;2023-09-30T00:14:04;11.45;;;4.57;;
20375;SDS011;10347;51.828;6.466;2023-09-30T00:16:29;8.10;;;3.88;;
20375;SDS011;10347;51.828;6.466;2023-09-30T00:18:56;8.68;;;3.90;;
20375;SDS011;10347;51.828;6.466;2023-09-30T00:21:23;7.97;;;3.65;;
20375;SDS011;10347;51.828;6.466;2023-09-30T00:23:49;8.48;;;3.97;;
20375;SDS011;10347;51.828;6.466;2023-09-30T00:26:15;8.25;;;4.30;;
20375;SDS011;10347;51.828;6.466;2023-09-30T00:28:40;10.07;;;4.65;;
20375;SDS011;10347;51.828;6.466;2023-09-30T00:31:06;13.63;;;4.50;;
20375;SDS011;10347;51.828;6.466;2023-09-30T00:33:35;9.52;;;4.25;;
20375;SDS011;10347;51.828;6.466;2023-09-30T00:36:08;9.00;;;4.25;;
20375;SDS011;10347;51.828;6.466;2023-09-30T00:38:35;8.25;;;3.78;;
20375;SDS011;10347;51.828;6.466;2023-09-30T00:41:01;8.68;;;3.92;;
20375;SDS011;10347;51.828;6.466;2023-09-30T00:43:27;8.10;;;3.75;;
20375;SDS011;10347;51.828;6.466;2023-09-30T00:45:55;9.57;;;4.40;;
20375;SDS011;10347;51.828;6.466;2023-09-30T00:48:42;8.30;;;4.05;;
20375;SDS011;10347;51.828;6.466;2023-09-30T00:51:08;8.45;;;4.45;;
20375;SDS011;10347;51.828;6.466;2023-09-30T00:53:33;11.27;;;4.65;;
20375;SDS011;10347;51.828;6.466;2023-09-30T00:55:59;12.07;;;4.80;;
20375;SDS011;10347;51.828;6.466;2023-09-30T00:58:25;11.25;;;4.38;;
20375;SDS011;10347;51.828;6.466;2023-09-30T01:00:56;10.48;;;4.85;;
20375;SDS011;10347;51.828;6.466;2023-09-30T01:03:22;13.30;;;4.93;;
20375;SDS011;10347;51.828;6.466;2023-09-30T01:05:48;10.10;;;5.00;;
20375;SDS011;10347;51.828;6.466;2023-09-30T01:08:14;10.88;;;4.80;;
20375;SDS011;10347;51.828;6.466;2023-09-30T01:10:41;8.27;;;3.90;;
20375;SDS011;10347;51.828;6.466;2023-09-30T01:13:07;10.95;;;4.65;;
20375;SDS011;10347;51.828;6.466;2023-09-30T01:15:33;11.73;;;4.20;;
20375;SDS011;10347;51.828;6.466;2023-09-30T01:17:59;7.45;;;4.15;;
20375;SDS011;10347;51.828;6.466;2023-09-30T01:20:25;8.05;;;4.05;;
20375;SDS011;10347;51.828;6.466;2023-09-30T01:22:51;9.13;;;4.30;;
20375;SDS011;10347;51.828;6.466;2023-09-30T01:25:20;6.40;;;3.58;;
20375;SDS011;10347;51.828;6.466;2023-09-30T01:27:45;8.15;;;3.65;;
20375;SDS011;10347;51.828;6.466;2023-09-30T01:30:11;9.98;;;4.22;;
20375;SDS011;10347;51.828;6.466;2023-09-30T01:32:38;9.68;;;4.40;;
20375;SDS011;10347;51.828;6.466;2023-09-30T01:35:04;12.10;;;4.60;;
20375;SDS011;10347;51.828;6.466;2023-09-30T01:37:30;11.32;;;4.32;;
20375;SDS011;10347;51.828;6.466;2023-09-30T01:39:56;7.68;;;3.72;;
20375;SDS011;10347;51.828;6.466;2023-09-30T01:42:22;8.70;;;3.38;;
20375;SDS011;10347;51.828;6.466;2023-09-30T01:44:48;7.50;;;3.95;;
20375;SDS011;10347;51.828;6.466;2023-09-30T01:47:13;7.50;;;4.00;;
20375;SDS011;10347;51.828;6.466;2023-09-30T01:49:39;9.00;;;4.28;;
20375;SDS011;10347;51.828;6.466;2023-09-30T01:52:04;10.55;;;4.68;;
20375;SDS011;10347;51.828;6.466;2023-09-30T01:54:30;8.30;;;3.60;;
20375;SDS011;10347;51.828;6.466;2023-09-30T01:56:55;9.25;;;4.18;;
20375;SDS011;10347;51.828;6.466;2023-09-30T01:59:21;9.95;;;4.35;;
20375;SDS011;10347;51.828;6.466;2023-09-30T02:01:47;8.95;;;4.40;;
20375;SDS011;10347;51.828;6.466;2023-09-30T02:04:14;8.77;;;3.80;;
20375;SDS011;10347;51.828;6.466;2023-09-30T02:06:42;9.18;;;3.80;;
20375;SDS011;10347;51.828;6.466;2023-09-30T02:09:08;11.52;;;4.25;;
20375;SDS011;10347;51.828;6.466;2023-09-30T02:11:37;7.03;;;3.88;;
20375;SDS011;10347;51.828;6.466;2023-09-30T02:14:02;9.27;;;4.18;;
20375;SDS011;10347;51.828;6.466;2023-09-30T02:16:28;10.50;;;4.20;;
20375;SDS011;10347;51.828;6.466;2023-09-30T02:18:54;8.10;;;4.10;;
20375;SDS011;10347;51.828;6.466;2023-09-30T02:21:19;8.63;;;4.07;;
20375;SDS011;10347;51.828;6.466;2023-09-30T02:23:47;8.55;;;4.35;;
20375;SDS011;10347;51.828;6.466;2023-09-30T02:26:16;9.20;;;4.30;;
20375;SDS011;10347;51.828;6.466;2023-09-30T02:28:42;8.75;;;4.32;;
20375;SDS011;10347;51.828;6.466;2023-09-30T02:31:08;8.65;;;4.30;;
20375;SDS011;10347;51.828;6.466;2023-09-30T02:33:34;8.07;;;4.47;;
20375;SDS011;10347;51.828;6.466;2023-09-30T02:36:06;9.88;;;4.60;;
20375;SDS011;10347;51.828;6.466;2023-09-30T02:38:33;8.00;;;4.43;;
20375;SDS011;10347;51.828;6.466;2023-09-30T02:40:59;11.27;;;4.32;;
20375;SDS011;10347;51.828;6.466;2023-09-30T02:43:25;10.80;;;4.70;;
20375;SDS011;10347;51.828;6.466;2023-09-30T02:45:50;8.60;;;4.70;;
20375;SDS011;10347;51.828;6.466;2023-09-30T02:48:16;10.18;;;4.72;;
20375;SDS011;10347;51.828;6.466;2023-09-30T02:50:42;10.68;;;4.43;;
20375;SDS011;10347;51.828;6.466;2023-09-30T02:53:11;7.80;;;4.50;;
20375;SDS011;10347;51.828;6.466;2023-09-30T02:55:40;8.10;;;5.10;;
20375;SDS011;10347;51.828;6.466;2023-09-30T02:58:07;10.05;;;4.55;;
20375;SDS011;10347;51.828;6.466;2023-09-30T03:00:33;10.52;;;4.70;;
20375;SDS011;10347;51.828;6.466;2023-09-30T03:03:00;7.93;;;4.30;;
20375;SDS011;10347;51.828;6.466;2023-09-30T03:05:27;9.40;;;3.95;;
20375;SDS011;10347;51.828;6.466;2023-09-30T03:07:55;9.10;;;4.57;;
20375;SDS011;10347;51.828;6.466;2023-09-30T03:10:21;9.07;;;4.97;;
20375;SDS011;10347;51.828;6.466;2023-09-30T03:12:51;8.73;;;4.50;;
20375;SDS011;10347;51.828;6.466;2023-09-30T03:15:18;8.25;;;4.57;;
20375;SDS011;10347;51.828;6.466;2023-09-30T03:17:43;8.63;;;4.75;;
20375;SDS011;10347;51.828;6.466;2023-09-30T03:20:09;8.38;;;4.43;;
20375;SDS011;10347;51.828;6.466;2023-09-30T03:22:42;10.70;;;4.28;;
20375;SDS011;10347;51.828;6.466;2023-09-30T03:25:11;7.00;;;4.18;;
20375;SDS011;10347;51.828;6.466;2023-09-30T03:27:37;9.30;;;5.53;;
20375;SDS011;10347;51.828;6.466;2023-09-30T03:30:07;9.05;;;5.18;;
20375;SDS011;10347;51.828;6.466;2023-09-30T03:32:33;10.70;;;4.90;;
20375;SDS011;10347;51.828;6.466;2023-09-30T03:35:01;7.93;;;4.53;;
20375;SDS011;10347;51.828;6.466;2023-09-30T03:37:27;11.50;;;4.80;;
20375;SDS011;10347;51.828;6.466;2023-09-30T03:39:54;7.90;;;5.25;;
20375;SDS011;10347;51.828;6.466;2023-09-30T03:42:20;10.93;;;4.90;;
20375;SDS011;10347;51.828;6.466;2023-09-30T03:44:46;7.53;;;4.63;;
20375;SDS011;10347;51.828;6.466;2023-09-30T03:47:13;10.98;;;5.10;;
20375;SDS011;10347;51.828;6.466;2023-09-30T03:49:38;6.47;;;4.65;;
20375;SDS011;10347;51.828;6.466;2023-09-30T03:52:04;7.93;;;4.85;;
20375;SDS011;10347;51.828;6.466;2023-09-30T03:54:31;9.10;;;4.60;;
20375;SDS011;10347;51.828;6.466;2023-09-30T03:56:56;8.38;;;4.47;;
20375;SDS011;10347;51.828;6.466;2023-09-30T03:59:22;7.50;;;4.68;;
20375;SDS011;10347;51.828;6.466;2023-09-30T04:01:48;7.85;;;4.80;;
20375;SDS011;10347;51.828;6.466;2023-09-30T04:04:13;6.97;;;4.82;;
20375;SDS011;10347;51.828;6.466;2023-09-30T04:06:39;8.18;;;5.15;;
20375;SDS011;10347;51.828;6.466;2023-09-30T04:09:07;7.03;;;4.70;;
20375;SDS011;10347;51.828;6.466;2023-09-30T04:11:36;9.32;;;4.72;;
20375;SDS011;10347;51.828;6.466;2023-09-30T04:14:02;9.68;;;5.50;;
20375;SDS011;10347;51.828;6.466;2023-09-30T04:16:33;8.73;;;4.68;;
20375;SDS011;10347;51.828;6.466;2023-09-30T04:18:58;9.95;;;5.20;;
20375;SDS011;10347;51.828;6.466;2023-09-30T04:21:25;9.35;;;4.88;;
20375;SDS011;10347;51.828;6.466;2023-09-30T04:23:52;8.07;;;4.97;;
20375;SDS011;10347;51.828;6.466;2023-09-30T04:26:18;8.60;;;4.97;;
20375;SDS011;10347;51.828;6.466;2023-09-30T04:28:43;10.80;;;5.18;;
20375;SDS011;10347;51.828;6.466;2023-09-30T04:31:09;10.52;;;5.63;;
20375;SDS011;10347;51.828;6.466;2023-09-30T04:33:34;7.30;;;4.70;;
20375;SDS011;10347;51.828;6.466;2023-09-30T04:36:01;7.97;;;5.30;;
20375;SDS011;10347;51.828;6.466;2023-09-30T04:38:26;7.32;;;4.72;;
20375;SDS011;10347;51.828;6.466;2023-09-30T04:40:52;6.85;;;4.85;;
20375;SDS011;10347;51.828;6.466;2023-09-30T04:43:19;11.25;;;5.93;;
20375;SDS011;10347;51.828;6.466;2023-09-30T04:45:48;8.27;;;5.45;;
20375;SDS011;10347;51.828;6.466;2023-09-30T04:48:17;10.13;;;5.13;;
20375;SDS011;10347;51.828;6.466;2023-09-30T04:50:43;9.45;;;4.90;;
20375;SDS011;10347;51.828;6.466;2023-09-30T04:53:08;7.57;;;4.80;;
20375;SDS011;10347;51.828;6.466;2023-09-30T04:55:34;6.53;;;4.60;;
20375;SDS011;10347;51.828;6.466;2023-09-30T04:57:59;8.25;;;5.32;;
20375;SDS011;10347;51.828;6.466;2023-09-30T05:00:25;8.80;;;5.00;;
20375;SDS011;10347;51.828;6.466;2023-09-30T05:02:51;11.93;;;6.20;;
20375;SDS011;10347;51.828;6.466;2023-09-30T05:05:19;9.90;;;5.88;;
20375;SDS011;10347;51.828;6.466;2023-09-30T05:07:45;11.25;;;5.93;;
20375;SDS011;10347;51.828;6.466;2023-09-30T05:10:12;8.15;;;6.03;;
20375;SDS011;10347;51.828;6.466;2023-09-30T05:12:38;8.23;;;5.25;;
20375;SDS011;10347;51.828;6.466;2023-09-30T05:15:05;11.10;;;6.53;;
20375;SDS011;10347;51.828;6.466;2023-09-30T05:17:31;6.78;;;5.03;;
20375;SDS011;10347;51.828;6.466;2023-09-30T05:19:57;10.57;;;6.20;;
20375;SDS011;10347;51.828;6.466;2023-09-30T05:22:23;9.27;;;5.80;;
20375;SDS011;10347;51.828;6.466;2023-09-30T05:24:52;9.57;;;5.93;;
20375;SDS011;10347;51.828;6.466;2023-09-30T05:27:18;9.85;;;5.93;;
20375;SDS011;10347;51.828;6.466;2023-09-30T05:29:44;6.60;;;5.55;;
20375;SDS011;10347;51.828;6.466;2023-09-30T05:32:10;7.75;;;5.50;;
20375;SDS011;10347;51.828;6.466;2023-09-30T05:34:36;10.98;;;6.50;;
20375;SDS011;10347;51.828;6.466;2023-09-30T05:37:02;11.55;;;6.53;;
20375;SDS011;10347;51.828;6.466;2023-09-30T05:39:28;10.00;;;6.13;;
20375;SDS011;10347;51.828;6.466;2023-09-30T05:41:53;9.95;;;6.05;;
20375;SDS011;10347;51.828;6.466;2023-09-30T05:44:20;9.32;;;6.43;;
20375;SDS011;10347;51.828;6.466;2023-09-30T05:46:46;11.38;;;7.10;;
20375;SDS011;10347;51.828;6.466;2023-09-30T05:49:12;10.20;;;6.28;;
20375;SDS011;10347;51.828;6.466;2023-09-30T05:51:42;8.90;;;6.18;;
20375;SDS011;10347;51.828;6.466;2023-09-30T05:54:07;8.85;;;6.60;;
20375;SDS011;10347;51.828;6.466;2023-09-30T05:56:35;9.57;;;6.47;;
20375;SDS011;10347;51.828;6.466;2023-09-30T05:59:02;10.18;;;6.95;;
20375;SDS011;10347;51.828;6.466;2023-09-30T06:01:28;9.93;;;6.72;;
20375;SDS011;10347;51.828;6.466;2023-09-30T06:03:53;12.02;;;6.90;;
20375;SDS011;10347;51.828;6.466;2023-09-30T06:06:19;9.38;;;6.53;;
20375;SDS011;10347;51.828;6.466;2023-09-30T06:08:45;10.90;;;6.78;;
20375;SDS011;10347;51.828;6.466;2023-09-30T06:11:17;11.43;;;6.97;;
20375;SDS011;10347;51.828;6.466;2023-09-30T06:13:44;8.77;;;6.35;;
20375;SDS011;10347;51.828;6.466;2023-09-30T06:16:12;12.30;;;6.65;;
20375;SDS011;10347;51.828;6.466;2023-09-30T06:18:38;11.25;;;6.90;;
20375;SDS011;10347;51.828;6.466;2023-09-30T06:21:04;10.50;;;7.05;;
20375;SDS011;10347;51.828;6.466;2023-09-30T06:23:30;10.02;;;6.18;;
20375;SDS011;10347;51.828;6.466;2023-09-30T06:25:56;11.60;;;6.18;;
20375;SDS011;10347;51.828;6.466;2023-09-30T06:28:22;11.73;;;6.70;;
20375;SDS011;10347;51.828;6.466;2023-09-30T06:30:51;11.65;;;7.00;;
20375;SDS011;10347;51.828;6.466;2023-09-30T06:33:17;10.88;;;7.10;;
20375;SDS011;10347;51.828;6.466;2023-09-30T06:35:43;12.57;;;6.90;;
20375;SDS011;10347;51.828;6.466;2023-09-30T06:38:16;11.68;;;7.10;;
20375;SDS011;10347;51.828;6.466;2023-09-30T06:40:43;11.35;;;6.53;;
20375;SDS011;10347;51.828;6.466;2023-09-30T06:43:10;13.27;;;8.48;;
20375;SDS011;10347;51.828;6.466;2023-09-30T06:45:35;11.15;;;7.88;;
20375;SDS011;10347;51.828;6.466;2023-09-30T06:48:06;11.20;;;7.70;;
20375;SDS011;10347;51.828;6.466;2023-09-30T06:50:32;11.30;;;7.13;;
20375;SDS011;10347;51.828;6.466;2023-09-30T06:52:57;11.88;;;7.35;;
20375;SDS011;10347;51.828;6.466;2023-09-30T06:55:24;11.00;;;7.10;;
20375;SDS011;10347;51.828;6.466;2023-09-30T06:57:52;10.40;;;7.65;;
20375;SDS011;10347;51.828;6.466;2023-09-30T07:00:17;13.10;;;7.63;;
20375;SDS011;10347;51.828;6.466;2023-09-30T07:02:43;9.77;;;6.93;;
20375;SDS011;10347;51.828;6.466;2023-09-30T07:05:14;10.25;;;6.75;;
20375;SDS011;10347;51.828;6.466;2023-09-30T07:07:40;11.70;;;7.45;;
20375;SDS011;10347;51.828;6.466;2023-09-30T07:10:10;14.80;;;7.97;;
20375;SDS011;10347;51.828;6.466;2023-09-30T07:12:36;13.15;;;7.40;;
20375;SDS011;10347;51.828;6.466;2023-09-30T07:15:02;12.60;;;8.00;;
20375;SDS011;10347;51.828;6.466;2023-09-30T07:17:29;10.30;;;7.45;;
20375;SDS011;10347;51.828;6.466;2023-09-30T07:19:55;11.45;;;7.60;;
20375;SDS011;10347;51.828;6.466;2023-09-30T07:22:21;15.45;;;7.70;;
20375;SDS011;10347;51.828;6.466;2023-09-30T07:24:47;10.85;;;6.85;;
20375;SDS011;10347;51.828;6.466;2023-09-30T07:27:12;14.13;;;7.80;;
20375;SDS011;10347;51.828;6.466;2023-09-30T07:29:38;12.98;;;7.72;;
20375;SDS011;10347;51.828;6.466;2023-09-30T07:32:03;16.00;;;7.90;;
20375;SDS011;10347;51.828;6.466;2023-09-30T07:34:30;11.45;;;8.20;;
20375;SDS011;10347;51.828;6.466;2023-09-30T07:36:56;9.90;;;8.07;;
20375;SDS011;10347;51.828;6.466;2023-09-30T07:39:21;12.20;;;8.35;;
20375;SDS011;10347;51.828;6.466;2023-09-30T07:41:47;14.88;;;8.50;;
20375;SDS011;10347;51.828;6.466;2023-09-30T07:44:12;10.55;;;7.07;;
20375;SDS011;10347;51.828;6.466;2023-09-30T07:46:38;14.65;;;8.38;;
20375;SDS011;10347;51.828;6.466;2023-09-30T07:49:03;10.13;;;7.60;;
20375;SDS011;10347;51.828;6.466;2023-09-30T07:51:29;11.88;;;8.50;;
20375;SDS011;10347;51.828;6.466;2023-09-30T07:53:55;15.55;;;9.73;;
20375;SDS011;10347;51.828;6.466;2023-09-30T07:56:24;11.38;;;8.60;;
20375;SDS011;10347;51.828;6.466;2023-09-30T07:58:50;11.80;;;8.63;;
20375;SDS011;10347;51.828;6.466;2023-09-30T08:01:16;10.52;;;7.43;;
20375;SDS011;10347;51.828;6.466;2023-09-30T08:03:42;10.68;;;7.10;;
20375;SDS011;10347;51.828;6.466;2023-09-30T08:06:08;11.65;;;7.63;;
20375;SDS011;10347;51.828;6.466;2023-09-30T08:08:34;13.50;;;7.38;;
20375;SDS011;10347;51.828;6.466;2023-09-30T08:11:00;9.48;;;7.78;;
20375;SDS011;10347;51.828;6.466;2023-09-30T08:13:26;10.05;;;7.13;;
20375;SDS011;10347;51.828;6.466;2023-09-30T08:15:52;11.18;;;7.07;;
20375;SDS011;10347;51.828;6.466;2023-09-30T08:18:18;12.60;;;6.88;;
20375;SDS011;10347;51.828;6.466;2023-09-30T08:20:44;12.20;;;7.57;;
20375;SDS011;10347;51.828;6.466;2023-09-30T08:23:10;13.55;;;8.15;;
20375;SDS011;10347;51.828;6.466;2023-09-30T08:25:36;9.65;;;6.43;;
20375;SDS011;10347;51.828;6.466;2023-09-30T08:28:03;9.35;;;6.38;;
20375;SDS011;10347;51.828;6.466;2023-09-30T08:30:29;12.07;;;6.68;;
20375;SDS011;10347;51.828;6.466;2023-09-30T08:32:55;9.15;;;7.13;;
20375;SDS011;10347;51.828;6.466;2023-09-30T08:35:21;10.23;;;6.95;;
20375;SDS011;10347;51.828;6.466;2023-09-30T08:37:46;11.23;;;6.95;;
20375;SDS011;10347;51.828;6.466;2023-09-30T08:40:12;12.13;;;7.28;;
20375;SDS011;10347;51.828;6.466;2023-09-30T08:42:40;9.52;;;6.40;;
20375;SDS011;10347;51.828;6.466;2023-09-30T08:45:07;9.35;;;6.45;;
20375;SDS011;10347;51.828;6.466;2023-09-30T08:47:35;14.85;;;7.53;;
20375;SDS011;10347;51.828;6.466;2023-09-30T08:50:02;10.57;;;6.82;;
20375;SDS011;10347;51.828;6.466;2023-09-30T08:52:33;14.18;;;7.57;;
20375;SDS011;10347;51.828;6.466;2023-09-30T08:55:00;10.70;;;6.80;;
20375;SDS011;10347;51.828;6.466;2023-09-30T08:57:26;10.45;;;6.55;;
20375;SDS011;10347;51.828;6.466;2023-09-30T08:59:54;9.25;;;6.63;;
20375;SDS011;10347;51.828;6.466;2023-09-30T09:02:20;11.32;;;6.85;;
20375;SDS011;10347;51.828;6.466;2023-09-30T09:04:46;12.18;;;7.68;;
20375;SDS011;10347;51.828;6.466;2023-09-30T09:07:11;11.52;;;7.57;;
20375;SDS011;10347;51.828;6.466;2023-09-30T09:09:37;9.65;;;6.78;;
20375;SDS011;10347;51.828;6.466;2023-09-30T09:12:03;10.73;;;7.50;;
20375;SDS011;10347;51.828;6.466;2023-09-30T09:14:36;11.60;;;8.05;;
20375;SDS011;10347;51.828;6.466;2023-09-30T09:17:06;12.00;;;8.25;;
20375;SDS011;10347;51.828;6.466;2023-09-30T09:19:33;13.40;;;7.35;;
20375;SDS011;10347;51.828;6.466;2023-09-30T09:22:00;10.20;;;6.75;;
20375;SDS011;10347;51.828;6.466;2023-09-30T09:24:33;13.25;;;7.22;;
20375;SDS011;10347;51.828;6.466;2023-09-30T09:27:03;12.52;;;6.63;;
20375;SDS011;10347;51.828;6.466;2023-09-30T09:29:36;15.05;;;7.28;;
20375;SDS011;10347;51.828;6.466;2023-09-30T09:32:09;12.90;;;6.43;;
20375;SDS011;10347;51.828;6.466;2023-09-30T09:34:43;8.55;;;6.40;;
20375;SDS011;10347;51.828;6.466;2023-09-30T09:37:17;10.20;;;6.60;;
20375;SDS011;10347;51.828;6.466;2023-09-30T09:39:56;12.60;;;7.63;;
20375;SDS011;10347;51.828;6.466;2023-09-30T09:42:32;15.48;;;7.93;;
20375;SDS011;10347;51.828;6.466;2023-09-30T09:45:00;15.52;;;6.97;;
20375;SDS011;10347;51.828;6.466;2023-09-30T09:47:27;9.45;;;6.10;;
20375;SDS011;10347;51.828;6.466;2023-09-30T09:49:54;8.95;;;5.63;;
20375;SDS011;10347;51.828;6.466;2023-09-30T09:52:23;7.18;;;5.20;;
20375;SDS011;10347;51.828;6.466;2023-09-30T09:54:49;9.93;;;5.68;;
20375;SDS011;10347;51.828;6.466;2023-09-30T09:57:16;11.45;;;5.95;;
20375;SDS011;10347;51.828;6.466;2023-09-30T09:59:43;13.40;;;7.03;;
20375;SDS011;10347;51.828;6.466;2023-09-30T10:02:13;9.80;;;5.80;;
20375;SDS011;10347;51.828;6.466;2023-09-30T10:04:41;8.10;;;5.68;;
20375;SDS011;10347;51.828;6.466;2023-09-30T10:07:09;10.00;;;5.80;;
20375;SDS011;10347;51.828;6.466;2023-09-30T10:09:39;9.73;;;5.82;;
20375;SDS011;10347;51.828;6.466;2023-09-30T10:12:10;9.00;;;5.25;;
20375;SDS011;10347;51.828;6.466;2023-09-30T10:14:37;8.18;;;5.20;;
20375;SDS011;10347;51.828;6.466;2023-09-30T10:17:03;9.57;;;4.88;;
20375;SDS011;10347;51.828;6.466;2023-09-30T10:19:29;8.20;;;4.35;;
20375;SDS011;10347;51.828;6.466;2023-09-30T10:24:41;8.13;;;4.97;;
20375;SDS011;10347;51.828;6.466;2023-09-30T10:29:50;7.18;;;4.20;;
20375;SDS011;10347;51.828;6.466;2023-09-30T10:32:21;12.77;;;5.00;;
20375;SDS011;10347;51.828;6.466;2023-09-30T10:34:47;8.23;;;5.10;;
20375;SDS011;10347;51.828;6.466;2023-09-30T10:39:53;9.30;;;5.18;;
20375;SDS011;10347;51.828;6.466;2023-09-30T10:50:53;7.78;;;3.95;;
20375;SDS011;10347;51.828;6.466;2023-09-30T10:53:25;9.52;;;3.83;;
20375;SDS011;10347;51.828;6.466;2023-09-30T10:56:01;9.75;;;3.85;;
20375;SDS011;10347;51.828;6.466;2023-09-30T10:58:39;7.57;;;3.65;;
20375;SDS011;10347;51.828;6.466;2023-09-30T11:01:06;8.20;;;3.30;;
20375;SDS011;10347;51.828;6.466;2023-09-30T11:03:31;6.95;;;3.80;;
20375;SDS011;10347;51.828;6.466;2023-09-30T11:05:57;6.32;;;3.33;;
20375;SDS011;10347;51.828;6.466;2023-09-30T11:08:22;7.68;;;3.63;;
20375;SDS011;10347;51.828;6.466;2023-09-30T11:10:50;6.72;;;3.10;;
20375;SDS011;10347;51.828;6.466;2023-09-30T11:13:16;4.70;;;3.28;;
20375;SDS011;10347;51.828;6.466;2023-09-30T11:15:43;6.20;;;3.53;;
20375;SDS011;10347;51.828;6.466;2023-09-30T11:18:16;8.15;;;4.05;;
20375;SDS011;10347;51.828;6.466;2023-09-30T11:20:43;6.78;;;3.28;;
20375;SDS011;10347;51.828;6.466;2023-09-30T11:23:10;5.03;;;2.67;;
20375;SDS011;10347;51.828;6.466;2023-09-30T11:25:37;6.43;;;2.92;;
20375;SDS011;10347;51.828;6.466;2023-09-30T11:28:14;6.30;;;3.15;;
20375;SDS011;10347;51.828;6.466;2023-09-30T11:30:57;7.68;;;4.78;;
20375;SDS011;10347;51.828;6.466;2023-09-30T11:33:24;7.28;;;5.15;;
20375;SDS011;10347;51.828;6.466;2023-09-30T11:38:23;9.25;;;4.35;;
20375;SDS011;10347;51.828;6.466;2023-09-30T11:41:01;4.53;;;3.30;;
20375;SDS011;10347;51.828;6.466;2023-09-30T11:43:32;8.07;;;3.63;;
20375;SDS011;10347;51.828;6.466;2023-09-30T11:46:09;8.48;;;3.92;;
20375;SDS011;10347;51.828;6.466;2023-09-30T11:48:58;8.60;;;3.92;;
20375;SDS011;10347;51.828;6.466;2023-09-30T11:51:25;4.72;;;3.15;;
20375;SDS011;10347;51.828;6.466;2023-09-30T11:53:52;5.85;;;2.88;;
20375;SDS011;10347;51.828;6.466;2023-09-30T11:56:22;5.85;;;2.92;;
20375;SDS011;10347;51.828;6.466;2023-09-30T11:58:53;9.23;;;3.13;;
20375;SDS011;10347;51.828;6.466;2023-09-30T12:01:19;7.25;;;3.10;;
20375;SDS011;10347;51.828;6.466;2023-09-30T12:03:46;5.78;;;3.30;;
20375;SDS011;10347;51.828;6.466;2023-09-30T12:06:13;8.20;;;3.55;;
20375;SDS011;10347;51.828;6.466;2023-09-30T12:08:39;5.63;;;3.72;;
20375;SDS011;10347;51.828;6.466;2023-09-30T12:11:05;6.07;;;3.58;;
20375;SDS011;10347;51.828;6.466;2023-09-30T12:13:31;5.97;;;3.97;;
20375;SDS011;10347;51.828;6.466;2023-09-30T12:15:56;5.47;;;3.53;;
20375;SDS011;10347;51.828;6.466;2023-09-30T12:18:22;6.63;;;4.10;;
20375;SDS011;10347;51.828;6.466;2023-09-30T12:20:51;6.82;;;3.88;;
20375;SDS011;10347;51.828;6.466;2023-09-30T12:23:17;6.20;;;3.42;;
20375;SDS011;10347;51.828;6.466;2023-09-30T12:25:46;6.80;;;3.72;;
20375;SDS011;10347;51.828;6.466;2023-09-30T12:28:13;8.05;;;3.78;;
20375;SDS011;10347;51.828;6.466;2023-09-30T12:30:42;5.30;;;2.88;;
20375;SDS011;10347;51.828;6.466;2023-09-30T12:33:08;5.53;;;3.28;;
20375;SDS011;10347;51.828;6.466;2023-09-30T12:35:35;5.22;;;2.95;;
20375;SDS011;10347;51.828;6.466;2023-09-30T12:38:01;6.28;;;2.72;;
20375;SDS011;10347;51.828;6.466;2023-09-30T12:40:29;6.40;;;3.08;;
20375;SDS011;10347;51.828;6.466;2023-09-30T12:42:55;5.40;;;2.80;;
20375;SDS011;10347;51.828;6.466;2023-09-30T12:45:21;6.40;;;3.30;;
20375;SDS011;10347;51.828;6.466;2023-09-30T12:47:46;4.63;;;3.00;;
20375;SDS011;10347;51.828;6.466;2023-09-30T12:50:13;5.88;;;3.00;;
20375;SDS011;10347;51.828;6.466;2023-09-30T12:52:38;7.05;;;2.53;;
20375;SDS011;10347;51.828;6.466;2023-09-30T12:55:04;6.60;;;3.38;;
20375;SDS011;10347;51.828;6.466;2023-09-30T12:57:31;8.57;;;3.22;;
20375;SDS011;10347;51.828;6.466;2023-09-30T12:59:57;5.75;;;2.67;;
20375;SDS011;10347;51.828;6.466;2023-09-30T13:02:22;8.60;;;3.63;;
20375;SDS011;10347;51.828;6.466;2023-09-30T13:04:48;14.73;;;7.07;;
20375;SDS011;10347;51.828;6.466;2023-09-30T13:07:14;9.43;;;6.70;;
20375;SDS011;10347;51.828;6.466;2023-09-30T13:09:40;7.82;;;5.00;;
20375;SDS011;10347;51.828;6.466;2023-09-30T13:12:07;6.60;;;3.95;;
20375;SDS011;10347;51.828;6.466;2023-09-30T13:14:33;4.15;;;2.60;;
20375;SDS011;10347;51.828;6.466;2023-09-30T13:16:58;4.53;;;2.60;;
20375;SDS011;10347;51.828;6.466;2023-09-30T13:19:25;5.10;;;3.13;;
20375;SDS011;10347;51.828;6.466;2023-09-30T13:21:50;5.93;;;3.05;;
20375;SDS011;10347;51.828;6.466;2023-09-30T13:24:21;6.22;;;2.90;;
20375;SDS011;10347;51.828;6.466;2023-09-30T13:26:47;5.70;;;3.63;;
20375;SDS011;10347;51.828;6.466;2023-09-30T13:29:13;7.57;;;4.25;;
20375;SDS011;10347;51.828;6.466;2023-09-30T13:31:41;5.13;;;3.40;;
20375;SDS011;10347;51.828;6.466;2023-09-30T13:34:07;7.82;;;3.30;;
20375;SDS011;10347;51.828;6.466;2023-09-30T13:36:33;19.58;;;14.60;;
20375;SDS011;10347;51.828;6.466;2023-09-30T13:38:59;18.10;;;14.82;;
20375;SDS011;10347;51.828;6.466;2023-09-30T13:41:25;12.30;;;9.82;;
20375;SDS011;10347;51.828;6.466;2023-09-30T13:43:51;7.63;;;5.65;;
20375;SDS011;10347;51.828;6.466;2023-09-30T13:46:17;9.27;;;5.63;;
20375;SDS011;10347;51.828;6.466;2023-09-30T13:48:43;7.93;;;5.50;;
20375;SDS011;10347;51.828;6.466;2023-09-30T13:51:09;8.18;;;4.50;;
20375;SDS011;10347;51.828;6.466;2023-09-30T13:53:35;6.43;;;3.80;;
20375;SDS011;10347;51.828;6.466;2023-09-30T13:56:01;5.25;;;3.15;;
20375;SDS011;10347;51.828;6.466;2023-09-30T13:58:28;4.72;;;3.00;;
20375;SDS011;10347;51.828;6.466;2023-09-30T14:00:54;7.38;;;2.90;;
20375;SDS011;10347;51.828;6.466;2023-09-30T14:03:21;4.28;;;2.75;;
20375;SDS011;10347;51.828;6.466;2023-09-30T14:05:49;7.38;;;3.25;;
20375;SDS011;10347;51.828;6.466;2023-09-30T14:08:15;6.38;;;2.83;;
20375;SDS011;10347;51.828;6.466;2023-09-30T14:10:41;4.53;;;2.63;;
20375;SDS011;10347;51.828;6.466;2023-09-30T14:13:09;6.03;;;2.42;;
20375;SDS011;10347;51.828;6.466;2023-09-30T14:15:35;11.38;;;3.08;;
20375;SDS011;10347;51.828;6.466;2023-09-30T14:18:00;6.03;;;3.13;;
20375;SDS011;10347;51.828;6.466;2023-09-30T14:20:27;3.75;;;2.90;;
20375;SDS011;10347;51.828;6.466;2023-09-30T14:22:52;5.38;;;2.78;;
20375;SDS011;10347;51.828;6.466;2023-09-30T14:25:20;4.10;;;2.58;;
20375;SDS011;10347;51.828;6.466;2023-09-30T14:27:46;7.95;;;2.97;;
20375;SDS011;10347;51.828;6.466;2023-09-30T14:30:12;5.57;;;2.90;;
20375;SDS011;10347;51.828;6.466;2023-09-30T14:32:38;4.43;;;2.67;;
20375;SDS011;10347;51.828;6.466;2023-09-30T14:35:05;3.72;;;2.50;;
20375;SDS011;10347;51.828;6.466;2023-09-30T14:37:31;4.85;;;2.50;;
20375;SDS011;10347;51.828;6.466;2023-09-30T14:39:57;6.47;;;3.10;;
20375;SDS011;10347;51.828;6.466;2023-09-30T14:42:22;4.57;;;3.00;;
20375;SDS011;10347;51.828;6.466;2023-09-30T14:44:48;3.22;;;2.75;;
20375;SDS011;10347;51.828;6.466;2023-09-30T14:47:14;5.78;;;3.30;;
20375;SDS011;10347;51.828;6.466;2023-09-30T14:49:40;8.30;;;4.35;;
20375;SDS011;10347;51.828;6.466;2023-09-30T14:52:06;7.43;;;3.40;;
20375;SDS011;10347;51.828;6.466;2023-09-30T14:54:31;5.80;;;2.80;;
20375;SDS011;10347;51.828;6.466;2023-09-30T14:56:57;6.30;;;3.08;;
20375;SDS011;10347;51.828;6.466;2023-09-30T14:59:23;5.13;;;2.85;;
20375;SDS011;10347;51.828;6.466;2023-09-30T15:01:48;4.70;;;2.53;;